Time;durP1;ratioP1;P1;durP2;ratioP2;P2;SDS_P1;SDS_P2;PMS_P1;PMS_P2;Temp;Humidity;BMP_temperature;BMP_pressure;BME280_temperature;BME280_humidity;BME280_pressure;Samples;Min_cycle;Max_cycle;Signal;HPM_P1;HPM_P2
2020/12/28 00:00:28;;;;;;;2.27;1.77;;;;;;;;;;10273366;28;20036;-57
2020/12/28 00:05:26;;;;;;;3.97;1.60;;;;;;;;;;10267307;28;20044;-56
2020/12/28 00:10:23;;;;;;;2.13;1.60;;;;;;;;;;10269332;28;20440;-58
2020/12/28 00:15:28;;;;;;;3.30;1.80;;;;;;;;;;10238425;28;20041;-60
2020/12/28 00:20:26;;;;;;;1.40;1.30;;;;;;;;;;10274440;28;20584;-61
2020/12/28 00:25:24;;;;;;;2.38;1.83;;;;;;;;;;10271258;28;20038;-65
2020/12/28 00:30:22;;;;;;;2.00;1.80;;;;;;;;;;10300953;28;20116;-59
2020/12/28 00:35:19;;;;;;;2.57;1.73;;;;;;;;;;10285931;28;20041;-54
2020/12/28 00:40:17;;;;;;;1.60;1.50;;;;;;;;;;10334059;28;20299;-60
2020/12/28 00:45:14;;;;;;;2.07;1.87;;;;;;;;;;10327018;28;20052;-57
2020/12/28 00:50:12;;;;;;;2.93;2.00;;;;;;;;;;10295303;28;20541;-57
2020/12/28 00:55:10;;;;;;;2.10;1.90;;;;;;;;;;10302909;28;20033;-58
2020/12/28 01:00:07;;;;;;;2.10;1.90;;;;;;;;;;10282880;28;20034;-57
2020/12/28 01:05:22;;;;;;;2.65;1.92;;;;;;;;;;10289085;28;20430;-56
2020/12/28 01:10:20;;;;;;;2.13;1.97;;;;;;;;;;10295834;28;20186;-59
2020/12/28 01:15:24;;;;;;;2.65;1.90;;;;;;;;;;10290149;28;20040;-57
2020/12/28 01:20:22;;;;;;;1.73;1.63;;;;;;;;;;10308570;28;20044;-59
2020/12/28 01:25:23;;;;;;;2.28;1.60;;;;;;;;;;10329087;28;20438;-60
2020/12/28 01:30:27;;;;;;;2.20;2.00;;;;;;;;;;10292082;28;20036;-55
2020/12/28 01:35:30;;;;;;;3.80;2.10;;;;;;;;;;10310133;28;20487;-58
2020/12/28 01:40:31;;;;;;;2.37;1.93;;;;;;;;;;10318690;28;20411;-60
2020/12/28 01:45:31;;;;;;;1.95;1.77;;;;;;;;;;10291220;28;20091;-56
2020/12/28 01:50:33;;;;;;;2.47;2.03;;;;;;;;;;10328484;28;20588;-57
2020/12/28 01:55:31;;;;;;;2.33;2.00;;;;;;;;;;10332798;28;20123;-60
2020/12/28 02:00:37;;;;;;;1.88;1.77;;;;;;;;;;10341043;28;20147;-58
2020/12/28 02:05:37;;;;;;;1.83;1.73;;;;;;;;;;10305163;28;20443;-55
2020/12/28 02:10:35;;;;;;;3.87;2.03;;;;;;;;;;10333655;28;20040;-58
2020/12/28 02:15:33;;;;;;;2.28;1.88;;;;;;;;;;10325767;28;20665;-58
2020/12/28 02:20:58;;;;;;;2.17;1.88;;;;;;;;;;10333409;28;20404;-61
2020/12/28 02:25:55;;;;;;;2.20;1.43;;;;;;;;;;10304457;28;20029;-58
2020/12/28 02:30:53;;;;;;;1.50;1.40;;;;;;;;;;10330719;28;20041;-60
2020/12/28 02:36:12;;;;;;;2.17;1.83;;;;;;;;;;10334157;28;20040;-55
2020/12/28 02:41:10;;;;;;;2.00;1.90;;;;;;;;;;10310776;28;20590;-64
2020/12/28 02:46:26;;;;;;;1.60;1.50;;;;;;;;;;10298036;28;20041;-56
2020/12/28 02:51:42;;;;;;;1.85;1.70;;;;;;;;;;10317588;28;20045;-56
2020/12/28 02:56:57;;;;;;;2.38;1.92;;;;;;;;;;10272436;28;20066;-56
2020/12/28 03:02:13;;;;;;;2.03;1.83;;;;;;;;;;10304716;28;20037;-56
2020/12/28 03:07:29;;;;;;;2.15;1.95;;;;;;;;;;10275628;28;20038;-57
2020/12/28 03:12:45;;;;;;;3.15;2.13;;;;;;;;;;10281617;28;20046;-57
2020/12/28 03:18:01;;;;;;;1.83;1.67;;;;;;;;;;10279595;28;20038;-56
2020/12/28 03:23:17;;;;;;;1.83;1.73;;;;;;;;;;10282654;28;20496;-59
2020/12/28 03:28:33;;;;;;;1.58;1.40;;;;;;;;;;10285075;28;20092;-60
2020/12/28 03:33:49;;;;;;;2.40;1.73;;;;;;;;;;10293427;28;20033;-59
2020/12/28 03:39:04;;;;;;;1.70;1.60;;;;;;;;;;10289761;28;20124;-57
2020/12/28 03:44:21;;;;;;;4.05;2.10;;;;;;;;;;10278036;28;20029;-58
2020/12/28 03:49:36;;;;;;;1.83;1.70;;;;;;;;;;10287387;28;20153;-57
2020/12/28 03:54:52;;;;;;;1.80;1.70;;;;;;;;;;10319617;28;20033;-59
2020/12/28 04:00:08;;;;;;;3.33;2.80;;;;;;;;;;10332656;28;20029;-56
2020/12/28 04:05:20;;;;;;;3.97;3.17;;;;;;;;;;10343106;28;20029;-56
2020/12/28 04:10:36;;;;;;;2.90;2.65;;;;;;;;;;10327747;28;20033;-60
2020/12/28 04:15:48;;;;;;;2.72;2.28;;;;;;;;;;10304460;28;20101;-60
2020/12/28 04:20:46;;;;;;;2.23;2.03;;;;;;;;;;10284401;28;20594;-58
2020/12/28 04:25:43;;;;;;;2.20;2.00;;;;;;;;;;10279394;28;20509;-59
2020/12/28 04:30:41;;;;;;;3.20;1.53;;;;;;;;;;10292233;28;20584;-60
2020/12/28 04:35:38;;;;;;;1.70;1.60;;;;;;;;;;10319744;28;20037;-58
2020/12/28 04:40:36;;;;;;;2.03;1.73;;;;;;;;;;10266217;28;20029;-60
2020/12/28 04:45:33;;;;;;;2.45;2.10;;;;;;;;;;10273674;28;20037;-60
2020/12/28 04:50:31;;;;;;;1.83;1.67;;;;;;;;;;10277918;28;20038;-56
2020/12/28 04:55:28;;;;;;;2.33;1.80;;;;;;;;;;10262668;28;20060;-60
2020/12/28 05:00:26;;;;;;;2.03;1.93;;;;;;;;;;10268348;28;20418;-58
2020/12/28 05:05:23;;;;;;;1.77;1.57;;;;;;;;;;10275896;28;20041;-61
2020/12/28 05:10:22;;;;;;;2.70;1.83;;;;;;;;;;10286264;28;20038;-63
2020/12/28 05:15:19;;;;;;;3.17;1.92;;;;;;;;;;10280707;28;20037;-58
2020/12/28 05:20:20;;;;;;;2.07;1.83;;;;;;;;;;10286486;28;20097;-58
2020/12/28 05:25:18;;;;;;;3.10;2.22;;;;;;;;;;10288339;28;20034;-57
2020/12/28 05:30:19;;;;;;;2.25;2.05;;;;;;;;;;10292035;28;20496;-56
2020/12/28 05:35:17;;;;;;;2.15;1.92;;;;;;;;;;10276706;28;20129;-56
2020/12/28 05:40:16;;;;;;;2.30;2.10;;;;;;;;;;10299156;28;20029;-58
2020/12/28 05:45:14;;;;;;;2.53;2.25;;;;;;;;;;10325810;28;20045;-57
2020/12/28 05:50:11;;;;;;;5.60;2.80;;;;;;;;;;10326261;28;20037;-61
2020/12/28 05:55:08;;;;;;;3.00;2.20;;;;;;;;;;10320314;28;20041;-59
2020/12/28 06:00:06;;;;;;;5.20;2.37;;;;;;;;;;10332273;28;20506;-60
2020/12/28 06:05:13;;;;;;;2.22;1.88;;;;;;;;;;10338767;28;20033;-64
2020/12/28 06:10:11;;;;;;;3.58;2.17;;;;;;;;;;10329738;28;20044;-61
2020/12/28 06:15:24;;;;;;;2.60;2.05;;;;;;;;;;10303310;28;20033;-60
2020/12/28 06:20:29;;;;;;;3.15;2.63;;;;;;;;;;10318101;28;20065;-61
2020/12/28 06:25:26;;;;;;;1.90;1.73;;;;;;;;;;10273469;28;20026;-54
2020/12/28 06:30:24;;;;;;;2.47;1.50;;;;;;;;;;10286573;28;20053;-56
2020/12/28 06:35:26;;;;;;;1.67;1.47;;;;;;;;;;10300948;28;20041;-58
2020/12/28 06:40:44;;;;;;;2.70;2.50;;;;;;;;;;10292937;28;20037;-61
2020/12/28 06:45:49;;;;;;;7.82;3.08;;;;;;;;;;10306280;28;20477;-57
2020/12/28 06:50:47;;;;;;;4.20;3.08;;;;;;;;;;10298668;28;20068;-55
2020/12/28 06:55:44;;;;;;;3.97;3.53;;;;;;;;;;10335415;28;20140;-59
2020/12/28 07:00:42;;;;;;;6.07;3.43;;;;;;;;;;10327001;28;20267;-56
2020/12/28 07:05:39;;;;;;;4.10;3.53;;;;;;;;;;10318399;28;20037;-59
2020/12/28 07:10:36;;;;;;;5.00;3.20;;;;;;;;;;10330551;28;20048;-61
2020/12/28 07:15:34;;;;;;;6.07;2.70;;;;;;;;;;10312655;28;20041;-55
2020/12/28 07:20:32;;;;;;;3.00;2.07;;;;;;;;;;10289324;28;20108;-54
2020/12/28 07:25:29;;;;;;;2.70;2.50;;;;;;;;;;10332090;28;20029;-57
2020/12/28 07:30:26;;;;;;;5.30;3.13;;;;;;;;;;10290985;28;20400;-58
2020/12/28 07:35:24;;;;;;;2.73;2.50;;;;;;;;;;10290103;28;20044;-59
2020/12/28 07:40:21;;;;;;;4.17;3.27;;;;;;;;;;10298681;28;20569;-58
2020/12/28 07:45:19;;;;;;;3.53;2.23;;;;;;;;;;10317438;28;20136;-63
2020/12/28 07:50:17;;;;;;;4.63;2.17;;;;;;;;;;10324530;28;20025;-57
2020/12/28 07:55:16;;;;;;;4.80;2.70;;;;;;;;;;10327001;28;20042;-58
2020/12/28 08:00:16;;;;;;;3.30;2.20;;;;;;;;;;10287697;28;20033;-56
2020/12/28 08:05:14;;;;;;;7.47;3.55;;;;;;;;;;10285969;28;20049;-57
2020/12/28 08:10:11;;;;;;;2.95;2.60;;;;;;;;;;10289162;28;20044;-58
2020/12/28 08:15:09;;;;;;;4.13;2.93;;;;;;;;;;10289698;28;20037;-58
2020/12/28 08:20:08;;;;;;;2.53;2.30;;;;;;;;;;10292882;28;20126;-60
2020/12/28 08:25:06;;;;;;;2.47;1.80;;;;;;;;;;10324490;28;20099;-58
2020/12/28 08:30:07;;;;;;;2.85;1.88;;;;;;;;;;10282711;28;20037;-59
2020/12/28 08:35:05;;;;;;;3.40;1.42;;;;;;;;;;10311882;28;20056;-59
2020/12/28 08:40:12;;;;;;;2.67;2.13;;;;;;;;;;10291357;28;20033;-61
2020/12/28 08:45:17;;;;;;;2.30;2.00;;;;;;;;;;10288631;28;20030;-58
2020/12/28 08:50:15;;;;;;;3.65;2.67;;;;;;;;;;10297189;28;20095;-58
2020/12/28 08:55:12;;;;;;;2.60;2.40;;;;;;;;;;10295502;28;20080;-55
2020/12/28 09:00:09;;;;;;;4.43;3.17;;;;;;;;;;10298048;28;20041;-61
2020/12/28 09:05:07;;;;;;;3.97;2.80;;;;;;;;;;10290865;28;20033;-58
2020/12/28 09:10:04;;;;;;;3.00;2.23;;;;;;;;;;10289502;28;20495;-58
2020/12/28 09:15:01;;;;;;;3.03;2.37;;;;;;;;;;10286886;28;21536;-57
2020/12/28 09:19:59;;;;;;;6.57;3.13;;;;;;;;;;10301867;28;20013;-56
2020/12/28 09:24:56;;;;;;;4.40;3.13;;;;;;;;;;10318446;28;20103;-63
2020/12/28 09:29:55;;;;;;;3.42;2.58;;;;;;;;;;10292724;28;20037;-55
2020/12/28 09:34:52;;;;;;;3.47;2.03;;;;;;;;;;10291118;28;20025;-57
2020/12/28 09:39:49;;;;;;;3.17;1.70;;;;;;;;;;10327734;28;20160;-62
2020/12/28 09:44:47;;;;;;;2.80;2.37;;;;;;;;;;10331617;28;20028;-60
2020/12/28 09:49:44;;;;;;;3.47;2.40;;;;;;;;;;10329847;28;20037;-59
2020/12/28 09:54:42;;;;;;;2.77;2.27;;;;;;;;;;10331203;28;20399;-63
2020/12/28 09:59:41;;;;;;;3.15;2.83;;;;;;;;;;10320478;28;20513;-60
2020/12/28 10:04:38;;;;;;;2.53;1.73;;;;;;;;;;10338581;28;20455;-57
2020/12/28 10:09:36;;;;;;;2.37;2.20;;;;;;;;;;10325808;28;20033;-57
2020/12/28 10:14:33;;;;;;;3.27;2.80;;;;;;;;;;10279064;28;20033;-60
2020/12/28 10:19:30;;;;;;;3.30;2.43;;;;;;;;;;10309119;28;20741;-56
2020/12/28 10:24:28;;;;;;;3.33;2.70;;;;;;;;;;10331579;28;20049;-60
2020/12/28 10:29:25;;;;;;;3.17;2.17;;;;;;;;;;10320576;28;20069;-59
2020/12/28 10:34:26;;;;;;;3.00;2.30;;;;;;;;;;10324910;28;20034;-55
2020/12/28 10:39:23;;;;;;;4.38;3.10;;;;;;;;;;10281765;28;20038;-60
2020/12/28 10:44:22;;;;;;;4.17;3.57;;;;;;;;;;10275367;28;20498;-57
2020/12/28 10:49:19;;;;;;;;;;;;;;;;;;10267955;28;21153;-56
2020/12/28 10:54:16;;;;;;;5.18;3.17;;;;;;;;;;10280507;28;19916;-61
2020/12/28 10:59:14;;;;;;;6.70;3.53;;;;;;;;;;10281697;28;20303;-61
2020/12/28 11:04:11;;;;;;;4.90;3.50;;;;;;;;;;10271681;28;20774;-57
2020/12/28 11:09:09;;;;;;;6.50;2.83;;;;;;;;;;10288944;28;20653;-61
2020/12/28 11:14:06;;;;;;;4.13;2.03;;;;;;;;;;10274789;28;20033;-58
2020/12/28 11:19:03;;;;;;;5.17;2.80;;;;;;;;;;10317885;28;20491;-62
2020/12/28 11:24:01;;;;;;;4.23;2.40;;;;;;;;;;10276807;28;20030;-60
2020/12/28 11:29:00;;;;;;;4.43;2.58;;;;;;;;;;10280773;28;20032;-59
2020/12/28 11:33:58;;;;;;;5.70;2.80;;;;;;;;;;10269461;28;20080;-59
2020/12/28 11:38:55;;;;;;;5.25;2.53;;;;;;;;;;10292138;28;20033;-60
2020/12/28 11:43:53;;;;;;;2.37;1.77;;;;;;;;;;10267599;28;20096;-60
2020/12/28 11:48:50;;;;;;;2.43;1.63;;;;;;;;;;10258358;28;20040;-58
2020/12/28 11:53:47;;;;;;;3.00;1.90;;;;;;;;;;10279268;28;20367;-58
2020/12/28 11:58:46;;;;;;;1.30;1.20;;;;;;;;;;10279036;28;20088;-57
2020/12/28 12:03:44;;;;;;;3.58;2.45;;;;;;;;;;10277592;28;20124;-59
2020/12/28 12:09:10;;;;;;;5.25;2.95;;;;;;;;;;10293391;28;20693;-57
2020/12/28 12:13:59;;;;;;;4.35;3.28;;;;;;;;;;10273045;28;20060;-58
2020/12/28 12:18:56;;;;;;;4.73;3.23;;;;;;;;;;10309780;28;20029;-60
2020/12/28 12:23:54;;;;;;;6.00;3.87;;;;;;;;;;10313086;28;20029;-55
2020/12/28 12:28:52;;;;;;;5.03;3.40;;;;;;;;;;10295948;28;20451;-54
2020/12/28 12:33:49;;;;;;;4.47;2.13;;;;;;;;;;10319242;28;20194;-55
2020/12/28 12:38:47;;;;;;;4.80;3.50;;;;;;;;;;10329144;28;20037;-54
2020/12/28 12:43:44;;;;;;;5.67;3.13;;;;;;;;;;10323785;28;20715;-60
2020/12/28 12:48:42;;;;;;;8.67;4.33;;;;;;;;;;10281333;28;20045;-61
2020/12/28 12:53:39;;;;;;;10.38;4.47;;;;;;;;;;10327490;28;20041;-59
2020/12/28 12:58:37;;;;;;;6.23;4.37;;;;;;;;;;10301187;28;20041;-57
2020/12/28 13:03:34;;;;;;;6.60;4.40;;;;;;;;;;10281871;28;20681;-60
2020/12/28 13:08:32;;;;;;;8.43;4.00;;;;;;;;;;10287802;28;20076;-59
2020/12/28 13:13:29;;;;;;;4.63;2.43;;;;;;;;;;10316728;28;20515;-64
2020/12/28 13:18:27;;;;;;;9.50;4.03;;;;;;;;;;10284683;28;20033;-54
2020/12/28 13:23:24;;;;;;;5.67;3.13;;;;;;;;;;10288935;28;20113;-61
2020/12/28 13:28:22;;;;;;;4.90;2.67;;;;;;;;;;10288849;28;20038;-66
2020/12/28 13:33:20;;;;;;;9.98;4.40;;;;;;;;;;10311060;28;20033;-63
2020/12/28 13:38:17;;;;;;;5.47;3.47;;;;;;;;;;10278695;22;20069;-63
2020/12/28 13:43:15;;;;;;;12.00;5.97;;;;;;;;;;10232251;28;20042;-63
2020/12/28 13:48:12;;;;;;;5.93;3.80;;;;;;;;;;10224098;28;20077;-64
2020/12/28 13:53:10;;;;;;;4.47;2.80;;;;;;;;;;10232691;28;20049;-62
2020/12/28 13:58:07;;;;;;;4.57;2.53;;;;;;;;;;10237380;28;20030;-62
2020/12/28 14:03:04;;;;;;;9.80;4.07;;;;;;;;;;10222102;28;20037;-63
2020/12/28 14:08:02;;;;;;;6.47;4.13;;;;;;;;;;10205334;28;20492;-62
2020/12/28 14:12:59;;;;;;;6.37;2.63;;;;;;;;;;10232144;28;20474;-63
2020/12/28 14:17:57;;;;;;;5.20;2.60;;;;;;;;;;10218580;28;20037;-63
2020/12/28 14:22:54;;;;;;;4.47;2.27;;;;;;;;;;10221554;28;20038;-63
2020/12/28 14:27:51;;;;;;;2.60;1.73;;;;;;;;;;10244888;28;20034;-62
2020/12/28 14:32:49;;;;;;;4.13;3.53;;;;;;;;;;10232136;28;20129;-63
2020/12/28 14:37:46;;;;;;;7.67;3.77;;;;;;;;;;10211636;28;20041;-64
2020/12/28 14:42:43;;;;;;;9.87;4.60;;;;;;;;;;10241159;28;20034;-63
2020/12/28 14:47:42;;;;;;;6.17;4.60;;;;;;;;;;10223538;28;20034;-64
2020/12/28 14:52:39;;;;;;;4.38;1.65;;;;;;;;;;10242622;28;20457;-63
2020/12/28 14:57:37;;;;;;;6.43;3.37;;;;;;;;;;10253802;28;20038;-63
2020/12/28 15:02:34;;;;;;;3.37;2.00;;;;;;;;;;10253052;28;20033;-63
2020/12/28 15:07:32;;;;;;;3.97;1.17;;;;;;;;;;10251377;28;20065;-63
2020/12/28 15:12:29;;;;;;;5.05;3.35;;;;;;;;;;10260774;28;20041;-63
2020/12/28 15:17:27;;;;;;;3.73;1.73;;;;;;;;;;10252570;28;20030;-63
2020/12/28 15:22:24;;;;;;;6.33;3.00;;;;;;;;;;10231042;28;20034;-63
2020/12/28 15:27:22;;;;;;;2.17;1.70;;;;;;;;;;10207672;28;20412;-63
2020/12/28 15:32:19;;;;;;;3.60;1.97;;;;;;;;;;10246177;28;20045;-63
2020/12/28 15:37:17;;;;;;;2.77;1.80;;;;;;;;;;10241328;28;20042;-63
2020/12/28 15:42:14;;;;;;;2.70;1.80;;;;;;;;;;10232376;28;20559;-62
2020/12/28 15:47:13;;;;;;;4.47;2.37;;;;;;;;;;10250667;28;20116;-62
2020/12/28 15:52:10;;;;;;;14.07;6.35;;;;;;;;;;10250875;28;20050;-62
2020/12/28 15:57:07;;;;;;;3.73;3.40;;;;;;;;;;10250886;28;20035;-62
2020/12/28 16:02:05;;;;;;;2.87;2.33;;;;;;;;;;10243522;28;20046;-64
2020/12/28 16:07:02;;;;;;;0.73;0.63;;;;;;;;;;10243582;28;20151;-63
2020/12/28 16:12:00;;;;;;;1.20;0.83;;;;;;;;;;10231940;28;20132;-63
2020/12/28 16:17:06;;;;;;;1.63;0.80;;;;;;;;;;10230633;28;20038;-63
2020/12/28 16:22:03;;;;;;;3.85;2.28;;;;;;;;;;10227680;28;20097;-63
2020/12/28 16:27:01;;;;;;;2.30;1.93;;;;;;;;;;10234000;28;20465;-63
2020/12/28 16:31:59;;;;;;;6.37;3.63;;;;;;;;;;10223613;28;20042;-63
2020/12/28 16:37:00;;;;;;;3.58;1.13;;;;;;;;;;10250181;28;20038;-63
2020/12/28 16:41:58;;;;;;;4.90;2.13;;;;;;;;;;10237652;28;20539;-62
2020/12/28 16:46:56;;;;;;;1.25;0.88;;;;;;;;;;10239611;28;20057;-63
2020/12/28 16:51:57;;;;;;;2.42;0.88;;;;;;;;;;10238611;28;20042;-63
2020/12/28 16:56:55;;;;;;;6.53;2.42;;;;;;;;;;10240803;28;20057;-63
2020/12/28 17:01:53;;;;;;;2.22;1.00;;;;;;;;;;10242025;28;20022;-63
2020/12/28 17:06:58;;;;;;;3.38;3.08;;;;;;;;;;10237890;28;20034;-62
2020/12/28 17:11:57;;;;;;;8.90;3.45;;;;;;;;;;10226046;28;20061;-62
2020/12/28 17:16:54;;;;;;;4.38;2.13;;;;;;;;;;10235851;28;20534;-63
2020/12/28 17:21:52;;;;;;;0.70;0.70;;;;;;;;;;10262729;28;20045;-63
2020/12/28 17:26:59;;;;;;;4.07;2.10;;;;;;;;;;10241449;28;20045;-62
2020/12/28 17:31:57;;;;;;;1.65;1.05;;;;;;;;;;10259986;28;20052;-63
2020/12/28 17:36:54;;;;;;;4.03;1.50;;;;;;;;;;10255852;28;20454;-63
2020/12/28 17:41:52;;;;;;;0.77;0.77;;;;;;;;;;10253056;28;20140;-63
2020/12/28 17:46:50;;;;;;;3.23;1.60;;;;;;;;;;10270554;28;20056;-62
2020/12/28 17:51:47;;;;;;;3.30;2.53;;;;;;;;;;10285662;28;20037;-63
2020/12/28 17:56:45;;;;;;;7.30;3.13;;;;;;;;;;10298180;28;20499;-63
2020/12/28 18:01:42;;;;;;;6.33;2.63;;;;;;;;;;10289669;28;20503;-63
2020/12/28 18:06:44;;;;;;;2.20;2.10;;;;;;;;;;10275610;28;20034;-64
2020/12/28 18:11:42;;;;;;;4.40;2.42;;;;;;;;;;10296438;28;20080;-64
2020/12/28 18:16:46;;;;;;;6.93;1.80;;;;;;;;;;10281236;28;20468;-63
2020/12/28 18:21:47;;;;;;;1.52;1.42;;;;;;;;;;10273531;28;20164;-63
2020/12/28 18:26:44;;;;;;;1.77;1.63;;;;;;;;;;10295128;28;20041;-63
2020/12/28 18:31:41;;;;;;;9.43;3.40;;;;;;;;;;10289285;28;20953;-63
2020/12/28 18:36:39;;;;;;;1.07;1.07;;;;;;;;;;10297875;28;20033;-63
2020/12/28 18:41:37;;;;;;;3.30;1.63;;;;;;;;;;10287623;28;20034;-64
2020/12/28 18:46:34;;;;;;;1.63;1.45;;;;;;;;;;10269901;28;20061;-63
2020/12/28 18:51:32;;;;;;;3.73;1.83;;;;;;;;;;10281735;28;20128;-63
2020/12/28 18:56:30;;;;;;;1.70;1.60;;;;;;;;;;10281298;28;20026;-63
2020/12/28 19:01:27;;;;;;;2.75;1.40;;;;;;;;;;10288208;28;20087;-63
2020/12/28 19:06:25;;;;;;;1.37;1.23;;;;;;;;;;10278581;28;20033;-63
2020/12/28 19:11:22;;;;;;;4.67;2.43;;;;;;;;;;10273750;28;20038;-64
2020/12/28 19:16:20;;;;;;;3.83;2.60;;;;;;;;;;10278619;28;20029;-63
2020/12/28 19:21:18;;;;;;;1.93;1.53;;;;;;;;;;10280462;28;20045;-63
2020/12/28 19:26:15;;;;;;;3.50;2.20;;;;;;;;;;10293135;28;20037;-63
2020/12/28 19:31:12;;;;;;;2.67;1.83;;;;;;;;;;10282579;28;20038;-63
2020/12/28 19:36:11;;;;;;;5.43;3.43;;;;;;;;;;10263111;28;20088;-63
2020/12/28 19:41:09;;;;;;;5.07;4.00;;;;;;;;;;10280121;28;20484;-63
2020/12/28 19:46:08;;;;;;;5.38;3.13;;;;;;;;;;10278879;28;20041;-63
2020/12/28 19:51:06;;;;;;;7.00;3.83;;;;;;;;;;10282513;28;20932;-63
2020/12/28 19:56:06;;;;;;;5.73;3.53;;;;;;;;;;10276665;28;20116;-63
2020/12/28 20:01:03;;;;;;;7.05;3.50;;;;;;;;;;10278822;28;20296;-63
2020/12/28 20:06:01;;;;;;;5.83;3.57;;;;;;;;;;10276939;28;20060;-62
2020/12/28 20:10:58;;;;;;;4.50;2.83;;;;;;;;;;10274414;28;20419;-64
2020/12/28 20:15:56;;;;;;;7.97;3.93;;;;;;;;;;10274396;28;20045;-63
2020/12/28 20:20:54;;;;;;;3.67;3.13;;;;;;;;;;10286159;28;20029;-63
2020/12/28 20:25:51;;;;;;;4.50;3.17;;;;;;;;;;10277329;28;20045;-63
2020/12/28 20:30:48;;;;;;;5.63;3.20;;;;;;;;;;10273654;28;20037;-63
2020/12/28 20:35:46;;;;;;;1.67;1.57;;;;;;;;;;10279685;28;20128;-64
2020/12/28 20:40:44;;;;;;;3.83;1.93;;;;;;;;;;10280712;28;20108;-63
2020/12/28 20:45:42;;;;;;;2.08;1.05;;;;;;;;;;10281390;28;20111;-63
2020/12/28 20:50:40;;;;;;;1.25;1.17;;;;;;;;;;10284942;28;20088;-63
2020/12/28 20:55:38;;;;;;;3.10;2.25;;;;;;;;;;10279472;28;20080;-64
2020/12/28 21:00:37;;;;;;;3.40;1.83;;;;;;;;;;10283016;28;20587;-63
2020/12/28 21:05:34;;;;;;;;;;;;;;;;;;10288753;28;20156;-63
2020/12/28 21:10:32;;;;;;;2.40;1.30;;;;;;;;;;10283323;28;19985;-63
2020/12/28 21:15:30;;;;;;;4.85;2.00;;;;;;;;;;10284202;28;20365;-63
2020/12/28 21:20:27;;;;;;;1.87;1.30;;;;;;;;;;10289479;28;20407;-63
2020/12/28 21:25:24;;;;;;;1.87;0.97;;;;;;;;;;10299429;28;20033;-63
2020/12/28 21:30:22;;;;;;;6.53;3.07;;;;;;;;;;10284554;28;20059;-63
2020/12/28 21:35:19;;;;;;;3.13;2.27;;;;;;;;;;10285191;28;20068;-62
2020/12/28 21:40:20;;;;;;;1.60;1.50;;;;;;;;;;10284595;28;20037;-64
2020/12/28 21:45:17;;;;;;;3.13;1.90;;;;;;;;;;10278521;28;20041;-61
2020/12/28 21:50:15;;;;;;;1.33;1.20;;;;;;;;;;10288499;28;20033;-63
2020/12/28 21:55:12;;;;;;;2.43;2.23;;;;;;;;;;10278859;28;20029;-63
2020/12/28 22:00:09;;;;;;;0.87;0.87;;;;;;;;;;10277049;28;20036;-62
2020/12/28 22:05:08;;;;;;;1.10;0.50;;;;;;;;;;10289657;28;20407;-63
2020/12/28 22:10:06;;;;;;;0.57;0.57;;;;;;;;;;10282406;28;20033;-62
2020/12/28 22:15:04;;;;;;;0.30;0.30;;;;;;;;;;10266485;28;20025;-63
2020/12/28 22:20:01;;;;;;;0.63;0.63;;;;;;;;;;10273769;28;20038;-63
2020/12/28 22:24:59;;;;;;;0.83;0.70;;;;;;;;;;10286960;28;20034;-63
2020/12/28 22:29:56;;;;;;;0.60;0.60;;;;;;;;;;10279771;28;20041;-63
2020/12/28 22:34:54;;;;;;;1.23;1.07;;;;;;;;;;10291261;28;20029;-63
2020/12/28 22:39:51;;;;;;;0.30;0.30;;;;;;;;;;10293868;28;20067;-64
2020/12/28 22:44:48;;;;;;;1.27;0.67;;;;;;;;;;10285699;28;20045;-62
2020/12/28 22:49:46;;;;;;;1.13;0.90;;;;;;;;;;10281106;28;20496;-63
2020/12/28 22:54:43;;;;;;;0.53;0.53;;;;;;;;;;10280727;28;20033;-62
2020/12/28 22:59:41;;;;;;;1.67;1.33;;;;;;;;;;10284341;28;20054;-64
2020/12/28 23:04:38;;;;;;;0.83;0.83;;;;;;;;;;10291970;28;20036;-63
2020/12/28 23:09:35;;;;;;;0.60;0.60;;;;;;;;;;10283707;28;20091;-63
2020/12/28 23:14:33;;;;;;;1.20;1.10;;;;;;;;;;10276470;28;20029;-63
2020/12/28 23:19:31;;;;;;;1.17;0.80;;;;;;;;;;10284067;28;20492;-62
2020/12/28 23:24:28;;;;;;;1.00;1.00;;;;;;;;;;10291601;28;20048;-62
2020/12/28 23:29:26;;;;;;;2.00;1.03;;;;;;;;;;10269276;28;20482;-64
2020/12/28 23:34:23;;;;;;;1.43;1.33;;;;;;;;;;10270706;28;20046;-62
2020/12/28 23:39:21;;;;;;;3.57;2.10;;;;;;;;;;10275218;28;20041;-63
2020/12/28 23:44:18;;;;;;;1.10;1.07;;;;;;;;;;10285269;28;20182;-61
2020/12/28 23:49:15;;;;;;;1.23;1.13;;;;;;;;;;10290690;28;20033;-62
2020/12/28 23:54:13;;;;;;;0.67;0.67;;;;;;;;;;10292432;28;20124;-62
2020/12/28 23:59:11;;;;;;;5.20;2.33;;;;;;;;;;10287815;28;20116;-62
